createdAt,value
2023-03-25T00:00:22.838Z,21.90
2023-03-25T00:03:10.903Z,22.30
2023-03-25T00:05:39.896Z,25.90
2023-03-25T00:08:07.458Z,21.50
2023-03-25T00:10:35.493Z,20.90
2023-03-25T00:13:05.517Z,19.30
2023-03-25T00:15:33.905Z,18.90
2023-03-25T00:18:02.035Z,19.20
2023-03-25T00:20:29.703Z,19.50
2023-03-25T00:22:57.300Z,16.80
2023-03-25T00:25:24.887Z,17.80
2023-03-25T00:27:52.463Z,17.30
2023-03-25T00:30:21.326Z,17.70
2023-03-25T00:32:50.352Z,17.20
2023-03-25T00:35:20.139Z,17.00
2023-03-25T00:37:52.461Z,15.60
2023-03-25T00:40:20.889Z,19.60
2023-03-25T00:42:50.412Z,17.70
2023-03-25T00:45:18.345Z,17.60
2023-03-25T00:47:46.238Z,16.00
2023-03-25T00:50:13.964Z,16.10
2023-03-25T00:52:41.560Z,18.10
2023-03-25T00:55:09.710Z,17.00
2023-03-25T00:57:37.361Z,17.90
2023-03-25T01:00:08.412Z,18.40
2023-03-25T01:02:39.539Z,16.90
2023-03-25T01:05:10.366Z,17.40
2023-03-25T01:07:39.402Z,17.70
2023-03-25T01:10:07.992Z,17.80
2023-03-25T01:12:35.800Z,16.30
2023-03-25T01:15:03.571Z,16.90
2023-03-25T01:17:31.329Z,17.20
2023-03-25T01:19:59.108Z,17.70
2023-03-25T01:22:26.726Z,17.40
2023-03-25T01:24:54.345Z,18.10
2023-03-25T01:27:22.062Z,16.90
2023-03-25T01:29:49.694Z,18.50
2023-03-25T01:32:17.361Z,17.00
2023-03-25T01:34:44.960Z,18.10
2023-03-25T01:37:12.565Z,17.30
2023-03-25T01:39:40.336Z,17.80
2023-03-25T01:42:07.924Z,17.60
2023-03-25T01:44:38.207Z,16.70
2023-03-25T01:47:06.827Z,17.60
2023-03-25T01:49:44.268Z,17.50
2023-03-25T01:52:18.383Z,17.40
2023-03-25T01:54:46.488Z,17.90
2023-03-25T01:57:19.521Z,17.00
2023-03-25T01:59:48.180Z,17.00
2023-03-25T02:02:17.793Z,18.00
2023-03-25T02:05:02.094Z,16.90
2023-03-25T02:07:33.119Z,17.10
2023-03-25T02:10:04.822Z,17.50
2023-03-25T02:12:32.487Z,17.00
2023-03-25T02:15:02.343Z,16.70
2023-03-25T02:18:08.786Z,16.90
2023-03-25T02:21:04.471Z,17.00
2023-03-25T02:24:08.508Z,16.40
2023-03-25T02:27:15.512Z,15.80
2023-03-25T02:29:53.965Z,17.10
2023-03-25T02:32:40.654Z,16.90
2023-03-25T02:35:39.194Z,16.70
2023-03-25T02:38:28.728Z,17.00
2023-03-25T02:41:15.026Z,16.30
2023-03-25T02:43:53.788Z,15.80
2023-03-25T02:46:22.908Z,16.20
2023-03-25T02:49:06.886Z,17.30
2023-03-25T02:51:37.803Z,16.10
2023-03-25T02:54:12.694Z,15.80
2023-03-25T02:56:41.617Z,16.50
2023-03-25T02:59:09.861Z,17.00
2023-03-25T03:01:37.520Z,16.90
2023-03-25T03:04:05.300Z,16.60
2023-03-25T03:06:39.029Z,16.70
2023-03-25T03:09:17.609Z,16.70
2023-03-25T03:12:22.748Z,16.80
2023-03-25T03:15:08.963Z,16.20
2023-03-25T03:17:51.133Z,16.50
2023-03-25T03:20:32.503Z,16.60
2023-03-25T03:23:46.118Z,17.20
2023-03-25T03:26:38.378Z,16.80
2023-03-25T03:29:38.462Z,17.10
2023-03-25T03:32:13.303Z,16.50
2023-03-25T03:34:48.402Z,17.00
2023-03-25T03:37:19.268Z,17.90
2023-03-25T03:39:48.067Z,17.50
2023-03-25T03:42:27.143Z,17.90
2023-03-25T03:44:59.907Z,16.10
2023-03-25T03:47:31.408Z,16.00
2023-03-25T03:50:06.492Z,16.40
2023-03-25T03:52:50.996Z,15.40
2023-03-25T03:55:24.499Z,15.70
2023-03-25T03:57:59.576Z,15.80
2023-03-25T04:00:31.349Z,16.40
2023-03-25T04:03:06.144Z,16.40
2023-03-25T04:05:35.002Z,16.20
2023-03-25T04:08:12.136Z,16.70
2023-03-25T04:10:45.572Z,16.00
2023-03-25T04:13:14.797Z,17.40
2023-03-25T04:15:42.951Z,15.70
2023-03-25T04:18:10.575Z,15.60
2023-03-25T04:20:44.888Z,15.80
2023-03-25T04:23:16.497Z,15.20
2023-03-25T04:25:47.785Z,14.90
2023-03-25T04:28:17.739Z,15.50
2023-03-25T04:30:45.587Z,14.00
2023-03-25T04:33:13.484Z,15.70
2023-03-25T04:35:41.518Z,15.60
2023-03-25T04:38:09.183Z,15.30
2023-03-25T04:40:40.737Z,15.20
2023-03-25T04:43:08.448Z,15.00
2023-03-25T04:45:36.471Z,15.30
2023-03-25T04:48:06.112Z,15.00
2023-03-25T04:50:34.243Z,15.20
2023-03-25T04:53:01.878Z,15.70
2023-03-25T04:55:30.013Z,15.70
2023-03-25T04:57:57.658Z,15.90
2023-03-25T05:00:25.562Z,15.40
2023-03-25T05:02:55.053Z,16.00
2023-03-25T05:05:25.348Z,14.90
2023-03-25T05:07:55.381Z,16.70
2023-03-25T05:10:24.871Z,17.90
2023-03-25T05:13:02.574Z,15.90
2023-03-25T05:15:32.771Z,16.00
2023-03-25T05:18:01.965Z,14.50
2023-03-25T05:20:30.914Z,14.70
2023-03-25T05:22:58.573Z,14.10
2023-03-25T05:25:26.194Z,14.60
2023-03-25T05:27:54.396Z,14.80
2023-03-25T05:30:22.046Z,14.40
2023-03-25T05:32:56.707Z,13.80
2023-03-25T05:35:26.672Z,14.00
2023-03-25T05:37:55.874Z,13.40
2023-03-25T05:40:23.889Z,13.30
2023-03-25T05:42:54.760Z,13.50
2023-03-25T05:45:23.219Z,12.90
2023-03-25T05:47:51.162Z,13.70
2023-03-25T05:50:18.929Z,13.70
2023-03-25T05:52:49.486Z,13.70
2023-03-25T05:55:20.987Z,13.80
2023-03-25T05:57:49.803Z,15.00
2023-03-25T06:00:21.502Z,15.30
2023-03-25T06:02:52.236Z,15.80
2023-03-25T06:05:23.747Z,14.70
2023-03-25T06:07:52.135Z,15.50
2023-03-25T06:10:19.737Z,16.10
2023-03-25T06:12:48.093Z,14.70
2023-03-25T06:15:28.739Z,15.30
2023-03-25T06:17:57.211Z,16.00
2023-03-25T06:20:25.441Z,16.00
2023-03-25T06:22:53.045Z,14.20
2023-03-25T06:25:21.191Z,12.50
2023-03-25T06:27:50.385Z,12.30
2023-03-25T06:30:20.555Z,12.40
2023-03-25T06:32:52.452Z,11.30
2023-03-25T06:35:21.396Z,10.00
2023-03-25T06:37:49.731Z,10.80
2023-03-25T06:40:24.601Z,9.40
2023-03-25T06:42:52.481Z,9.00
2023-03-25T06:45:39.440Z,8.30
2023-03-25T06:48:13.105Z,8.80
2023-03-25T06:50:42.685Z,9.00
2023-03-25T06:53:11.554Z,9.00
2023-03-25T06:55:39.323Z,8.50
2023-03-25T06:58:06.976Z,8.50
2023-03-25T07:00:34.580Z,9.50
2023-03-25T07:03:02.475Z,9.70
2023-03-25T07:05:30.330Z,9.90
2023-03-25T07:07:58.518Z,9.00
2023-03-25T07:10:26.212Z,15.20
2023-03-25T07:12:53.867Z,8.30
2023-03-25T07:15:21.467Z,8.80
2023-03-25T07:17:49.902Z,7.40
2023-03-25T07:20:17.871Z,7.80
2023-03-25T07:22:45.714Z,7.90
2023-03-25T07:25:13.295Z,8.20
2023-03-25T07:27:40.935Z,8.70
2023-03-25T07:30:13.473Z,7.20
2023-03-25T07:32:41.219Z,7.40
2023-03-25T07:35:09.483Z,7.00
2023-03-25T07:37:37.198Z,7.30
2023-03-25T07:40:05.361Z,6.80
2023-03-25T07:42:33.005Z,6.60
2023-03-25T07:45:05.498Z,6.90
2023-03-25T07:47:34.570Z,6.40
2023-03-25T07:50:02.181Z,5.90
2023-03-25T07:52:29.805Z,6.50
2023-03-25T07:54:57.462Z,7.80
2023-03-25T07:57:25.306Z,6.90
2023-03-25T07:59:52.925Z,7.00
2023-03-25T08:02:20.598Z,7.10
2023-03-25T08:04:48.266Z,6.20
2023-03-25T08:07:16.389Z,7.00
2023-03-25T08:09:44.027Z,7.20
2023-03-25T08:12:11.598Z,6.40
2023-03-25T08:14:39.294Z,6.30
2023-03-25T08:17:06.946Z,6.70
2023-03-25T08:19:34.636Z,6.60
2023-03-25T08:22:02.548Z,6.20
2023-03-25T08:24:32.475Z,5.70
2023-03-25T08:27:00.772Z,5.60
2023-03-25T08:29:42.180Z,5.80
2023-03-25T08:32:09.815Z,5.80
2023-03-25T08:34:40.509Z,6.00
2023-03-25T08:37:10.063Z,5.90
2023-03-25T08:39:40.211Z,5.70
2023-03-25T08:42:09.522Z,6.00
2023-03-25T08:44:37.165Z,5.90
2023-03-25T08:47:05.389Z,5.90
2023-03-25T08:49:33.040Z,5.40
2023-03-25T08:52:01.820Z,5.20
2023-03-25T08:54:30.462Z,5.60
2023-03-25T08:56:58.142Z,5.80
2023-03-25T08:59:25.917Z,5.40
2023-03-25T09:01:55.867Z,6.30
2023-03-25T09:04:24.064Z,5.20
2023-03-25T09:07:11.142Z,5.10
2023-03-25T09:09:41.551Z,5.90
2023-03-25T09:12:09.788Z,5.10
2023-03-25T09:14:37.454Z,5.90
2023-03-25T09:17:06.151Z,6.60
2023-03-25T09:19:35.423Z,7.70
2023-03-25T09:22:03.828Z,5.80
2023-03-25T09:24:34.266Z,4.80
2023-03-25T09:27:03.197Z,4.40
2023-03-25T09:29:30.848Z,4.70
2023-03-25T09:31:59.792Z,4.90
2023-03-25T09:34:28.067Z,5.70
2023-03-25T09:36:56.200Z,3.90
2023-03-25T09:39:23.861Z,4.10
2023-03-25T09:42:13.462Z,3.80
2023-03-25T09:45:19.338Z,4.10
2023-03-25T09:47:55.700Z,4.20
2023-03-25T09:50:24.857Z,4.30
2023-03-25T09:53:19.821Z,4.50
2023-03-25T09:55:48.365Z,4.60
2023-03-25T09:58:27.245Z,5.70
2023-03-25T10:01:00.067Z,5.30
2023-03-25T10:03:34.460Z,6.00
2023-03-25T10:06:20.804Z,5.00
2023-03-25T10:09:18.951Z,4.80
2023-03-25T10:11:49.375Z,4.30
2023-03-25T10:14:39.412Z,3.60
2023-03-25T10:17:17.586Z,4.00
2023-03-25T10:20:00.658Z,4.20
2023-03-25T10:22:38.594Z,3.70
2023-03-25T10:25:14.644Z,3.20
2023-03-25T10:27:47.231Z,3.40
2023-03-25T10:30:22.088Z,3.90
2023-03-25T10:32:53.575Z,3.70
2023-03-25T10:35:25.404Z,3.70
2023-03-25T10:37:54.774Z,3.60
2023-03-25T10:40:27.146Z,3.20
2023-03-25T10:43:19.525Z,3.40
2023-03-25T10:45:47.994Z,3.80
2023-03-25T10:48:20.753Z,3.40
2023-03-25T10:50:50.340Z,3.40
2023-03-25T10:53:24.144Z,3.80
2023-03-25T10:56:00.226Z,3.50
2023-03-25T10:58:28.460Z,3.50
2023-03-25T11:00:56.125Z,3.60
2023-03-25T11:03:30.697Z,4.70
2023-03-25T11:05:58.851Z,6.70
2023-03-25T11:08:27.294Z,2.70
2023-03-25T11:10:59.291Z,4.20
2023-03-25T11:13:29.420Z,2.20
2023-03-25T11:16:02.616Z,2.50
2023-03-25T11:18:34.876Z,2.20
2023-03-25T11:21:13.560Z,2.50
2023-03-25T11:23:49.237Z,2.70
2023-03-25T11:26:27.228Z,3.40
2023-03-25T11:29:16.135Z,4.00
2023-03-25T11:31:44.198Z,4.10
2023-03-25T11:34:11.928Z,4.30
2023-03-25T11:36:55.192Z,4.70
2023-03-25T11:39:22.964Z,5.70
2023-03-25T11:41:51.103Z,5.40
2023-03-25T11:44:29.063Z,6.10
2023-03-25T11:46:59.156Z,6.20
2023-03-25T11:49:27.035Z,6.40
2023-03-25T11:52:01.296Z,7.30
2023-03-25T11:54:29.448Z,6.90
2023-03-25T11:56:57.511Z,9.00
2023-03-25T11:59:28.548Z,8.30
2023-03-25T12:02:37.331Z,7.60
2023-03-25T12:05:08.238Z,7.30
2023-03-25T12:07:41.575Z,7.00
2023-03-25T12:10:20.123Z,7.10
2023-03-25T12:13:10.048Z,5.60
2023-03-25T12:15:56.157Z,5.80
2023-03-25T12:18:48.113Z,5.90
2023-03-25T12:21:51.497Z,6.00
2023-03-25T12:24:47.529Z,5.50
2023-03-25T12:27:31.135Z,5.20
2023-03-25T12:30:10.727Z,5.20
2023-03-25T12:32:59.022Z,5.50
2023-03-25T12:35:38.754Z,4.50
2023-03-25T12:38:17.174Z,4.30
2023-03-25T12:40:53.987Z,3.70
2023-03-25T12:43:40.592Z,3.90
2023-03-25T12:46:29.872Z,3.90
2023-03-25T12:49:20.032Z,3.50
2023-03-25T12:52:05.094Z,4.50
2023-03-25T12:54:56.394Z,4.10
2023-03-25T12:57:45.955Z,3.40
2023-03-25T13:00:37.199Z,2.70
2023-03-25T13:03:36.191Z,4.20
2023-03-25T13:06:23.109Z,3.20
2023-03-25T13:08:56.593Z,3.30
2023-03-25T13:11:36.330Z,2.30
2023-03-25T13:14:21.705Z,1.20
2023-03-25T13:16:52.019Z,1.00
2023-03-25T13:19:23.141Z,0.90
2023-03-25T13:21:52.881Z,1.00
2023-03-25T13:24:24.793Z,1.20
2023-03-25T13:26:55.508Z,1.10
2023-03-25T13:29:34.304Z,1.40
2023-03-25T13:32:06.912Z,1.70
2023-03-25T13:34:41.246Z,2.30
2023-03-25T13:37:30.695Z,2.50
2023-03-25T13:40:14.158Z,3.40
2023-03-25T13:43:07.873Z,4.00
2023-03-25T13:45:49.373Z,4.70
2023-03-25T13:48:23.522Z,4.80
2023-03-25T13:50:51.445Z,5.80
2023-03-25T13:53:33.240Z,6.30
2023-03-25T13:56:06.753Z,6.40
2023-03-25T13:58:58.411Z,7.50
2023-03-25T14:01:35.706Z,6.50
2023-03-25T14:04:22.281Z,4.40
2023-03-25T14:07:02.238Z,4.90
2023-03-25T14:10:10.682Z,5.30
2023-03-25T14:12:45.373Z,4.50
2023-03-25T14:15:28.686Z,4.30
2023-03-25T14:17:57.458Z,4.60
2023-03-25T14:20:39.081Z,4.80
2023-03-25T14:23:14.029Z,4.70
2023-03-25T14:25:48.135Z,4.60
2023-03-25T14:28:19.233Z,4.80
2023-03-25T14:31:07.485Z,4.20
2023-03-25T14:34:11.951Z,4.40
2023-03-25T14:36:39.522Z,3.90
2023-03-25T14:39:12.567Z,4.40
2023-03-25T14:42:07.636Z,4.70
2023-03-25T14:44:41.024Z,5.50
2023-03-25T14:47:25.704Z,6.20
2023-03-25T14:50:21.027Z,16.20
2023-03-25T14:52:50.808Z,8.80
2023-03-25T14:55:20.776Z,13.00
2023-03-25T14:57:49.091Z,13.20
2023-03-25T15:00:29.410Z,6.80
2023-03-25T15:03:02.162Z,7.70
2023-03-25T15:05:32.062Z,5.00
2023-03-25T15:08:06.637Z,4.50
2023-03-25T15:10:46.040Z,6.60
2023-03-25T15:13:29.178Z,6.20
2023-03-25T15:16:19.418Z,8.90
2023-03-25T15:18:49.616Z,5.20
2023-03-25T15:21:17.339Z,6.10
2023-03-25T15:23:49.663Z,5.00
2023-03-25T15:26:30.441Z,5.10
2023-03-25T15:29:07.842Z,5.90
2023-03-25T15:31:55.924Z,5.30
2023-03-25T15:34:46.606Z,5.70
2023-03-25T15:37:43.119Z,6.00
2023-03-25T15:40:22.591Z,6.40
2023-03-25T15:43:09.203Z,6.30
2023-03-25T15:46:25.400Z,6.00
2023-03-25T15:49:23.953Z,5.90
2023-03-25T15:52:02.567Z,6.20
2023-03-25T15:54:44.136Z,8.50
2023-03-25T15:57:19.930Z,3.00
2023-03-25T16:00:14.305Z,3.10
2023-03-25T16:03:06.346Z,2.90
2023-03-25T16:05:36.901Z,2.40
2023-03-25T16:08:10.120Z,2.70
2023-03-25T16:10:39.468Z,3.90
2023-03-25T16:13:12.037Z,4.50
2023-03-25T16:15:40.349Z,3.20
2023-03-25T16:18:10.397Z,3.20
2023-03-25T16:20:38.039Z,3.40
2023-03-25T16:23:07.918Z,3.80
2023-03-25T16:25:40.910Z,3.10
2023-03-25T16:28:16.549Z,3.40
2023-03-25T16:30:49.583Z,2.80
2023-03-25T16:33:21.606Z,3.40
2023-03-25T16:36:04.216Z,3.80
2023-03-25T16:38:32.322Z,5.00
2023-03-25T16:41:04.992Z,5.50
2023-03-25T16:43:32.936Z,5.60
2023-03-25T16:46:02.556Z,5.70
2023-03-25T16:48:41.511Z,4.70
2023-03-25T16:51:17.969Z,4.20
2023-03-25T16:53:49.421Z,4.40
2023-03-25T16:56:16.978Z,6.20
2023-03-25T16:58:59.215Z,4.20
2023-03-25T17:01:29.195Z,4.50
2023-03-25T17:04:09.779Z,4.30
2023-03-25T17:06:41.048Z,4.60
2023-03-25T17:09:15.374Z,4.30
2023-03-25T17:11:45.096Z,5.00
2023-03-25T17:14:17.873Z,4.90
2023-03-25T17:16:46.373Z,5.10
2023-03-25T17:19:14.524Z,4.70
2023-03-25T17:22:02.940Z,4.80
2023-03-25T17:24:39.308Z,4.70
2023-03-25T17:27:20.866Z,5.40
2023-03-25T17:29:50.850Z,5.10
2023-03-25T17:32:18.699Z,4.80
2023-03-25T17:35:01.570Z,4.00
2023-03-25T17:37:30.834Z,3.80
2023-03-25T17:40:06.610Z,4.40
2023-03-25T17:42:35.976Z,4.90
2023-03-25T17:45:03.771Z,5.60
2023-03-25T17:47:31.448Z,5.20
2023-03-25T17:50:07.629Z,5.50
2023-03-25T17:52:36.164Z,6.00
2023-03-25T17:55:03.998Z,5.40
2023-03-25T17:57:31.784Z,5.80
2023-03-25T17:59:59.465Z,5.50
2023-03-25T18:02:27.311Z,8.30
2023-03-25T18:04:55.119Z,9.10
2023-03-25T18:07:22.993Z,6.80
2023-03-25T18:09:50.705Z,7.10
2023-03-25T18:12:18.274Z,6.60
2023-03-25T18:14:46.291Z,6.10
2023-03-25T18:17:13.969Z,6.50
2023-03-25T18:19:41.964Z,6.70
2023-03-25T18:22:19.874Z,7.90
2023-03-25T18:24:48.322Z,8.90
2023-03-25T18:27:16.125Z,10.20
2023-03-25T18:29:43.773Z,7.70
2023-03-25T18:32:11.550Z,8.20
2023-03-25T18:34:39.162Z,7.10
2023-03-25T18:37:07.489Z,7.00
2023-03-25T18:39:35.116Z,6.70
2023-03-25T18:42:02.720Z,6.70
2023-03-25T18:44:30.808Z,6.90
2023-03-25T18:46:58.534Z,6.00
2023-03-25T18:49:27.438Z,6.00
2023-03-25T18:51:57.255Z,7.60
2023-03-25T18:54:24.923Z,6.50
2023-03-25T18:56:52.628Z,7.90
2023-03-25T18:59:21.063Z,6.60
2023-03-25T19:01:48.733Z,7.20
2023-03-25T19:04:16.806Z,8.20
2023-03-25T19:06:44.523Z,8.50
2023-03-25T19:09:18.265Z,8.40
2023-03-25T19:11:47.073Z,8.40
2023-03-25T19:14:14.714Z,8.30
2023-03-25T19:16:48.105Z,8.40
2023-03-25T19:19:22.241Z,10.10
2023-03-25T19:21:50.251Z,8.60
2023-03-25T19:24:17.842Z,9.20
2023-03-25T19:26:45.853Z,10.10
2023-03-25T19:29:13.471Z,9.10
2023-03-25T19:31:42.437Z,12.70
2023-03-25T19:34:10.078Z,8.70
2023-03-25T19:36:37.674Z,8.30
2023-03-25T19:39:05.920Z,8.40
2023-03-25T19:41:34.757Z,7.80
2023-03-25T19:44:02.486Z,6.70
2023-03-25T19:46:31.727Z,6.90
2023-03-25T19:48:59.602Z,6.60
2023-03-25T19:51:27.272Z,6.60
2023-03-25T19:53:55.245Z,6.60
2023-03-25T19:56:22.895Z,6.70
2023-03-25T19:58:50.521Z,6.20
2023-03-25T20:01:18.231Z,6.00
2023-03-25T20:03:46.000Z,6.50
2023-03-25T20:06:14.136Z,6.80
2023-03-25T20:08:41.747Z,6.40
2023-03-25T20:11:10.624Z,7.10
2023-03-25T20:13:38.445Z,7.00
2023-03-25T20:16:06.903Z,7.50
2023-03-25T20:18:34.606Z,6.50
2023-03-25T20:21:02.321Z,7.20
2023-03-25T20:23:30.714Z,7.80
2023-03-25T20:25:58.379Z,7.90
2023-03-25T20:28:26.004Z,7.10
2023-03-25T20:30:55.230Z,7.20
2023-03-25T20:33:24.190Z,7.90
2023-03-25T20:35:52.093Z,7.30
2023-03-25T20:38:19.886Z,7.50
2023-03-25T20:40:47.509Z,7.40
2023-03-25T20:43:15.210Z,7.40
2023-03-25T20:45:43.708Z,8.20
2023-03-25T20:48:11.581Z,7.70
2023-03-25T20:50:39.311Z,7.70
2023-03-25T20:53:06.939Z,8.10
2023-03-25T20:55:35.049Z,7.50
2023-03-25T20:58:02.705Z,8.00
2023-03-25T21:00:30.498Z,7.40
2023-03-25T21:02:58.494Z,7.70
2023-03-25T21:05:28.179Z,7.30
2023-03-25T21:07:55.833Z,7.10
2023-03-25T21:10:23.559Z,7.00
2023-03-25T21:12:51.233Z,8.10
2023-03-25T21:15:18.932Z,8.00
2023-03-25T21:17:47.190Z,6.80
2023-03-25T21:20:14.871Z,8.30
2023-03-25T21:22:43.848Z,9.40
2023-03-25T21:25:14.822Z,8.20
2023-03-25T21:27:45.078Z,9.70
2023-03-25T21:30:14.073Z,8.30
2023-03-25T21:32:41.857Z,7.80
2023-03-25T21:35:10.050Z,6.50
2023-03-25T21:37:38.841Z,7.20
2023-03-25T21:40:10.453Z,7.20
2023-03-25T21:42:41.418Z,7.30
2023-03-25T21:45:11.460Z,7.20
2023-03-25T21:47:40.204Z,7.70
2023-03-25T21:50:10.473Z,8.60
2023-03-25T21:52:43.026Z,8.10
2023-03-25T21:55:11.267Z,9.40
2023-03-25T21:57:39.560Z,9.20
2023-03-25T22:00:08.559Z,9.70
2023-03-25T22:02:43.453Z,13.50
2023-03-25T22:05:16.190Z,17.10
2023-03-25T22:07:43.936Z,10.40
2023-03-25T22:10:11.978Z,12.90
2023-03-25T22:12:39.824Z,7.90
2023-03-25T22:15:08.517Z,10.30
2023-03-25T22:17:36.231Z,12.00
2023-03-25T22:20:05.418Z,11.10
2023-03-25T22:22:33.043Z,8.80
2023-03-25T22:25:00.948Z,11.90
2023-03-25T22:27:28.574Z,15.60
2023-03-25T22:29:56.172Z,10.80
2023-03-25T22:32:27.007Z,13.10
2023-03-25T22:34:54.919Z,15.20
2023-03-25T22:37:22.562Z,8.50
2023-03-25T22:39:50.443Z,6.00
2023-03-25T22:42:18.054Z,5.60
2023-03-25T22:44:45.742Z,5.80
2023-03-25T22:47:13.333Z,6.50
2023-03-25T22:49:41.082Z,6.00
2023-03-25T22:52:08.693Z,6.50
2023-03-25T22:54:36.516Z,6.90
2023-03-25T22:57:05.624Z,6.40
2023-03-25T22:59:33.310Z,7.80
2023-03-25T23:02:01.295Z,6.60
2023-03-25T23:04:29.091Z,7.80
2023-03-25T23:07:07.333Z,8.50
2023-03-25T23:09:42.829Z,6.30
2023-03-25T23:12:13.130Z,9.60
2023-03-25T23:14:42.804Z,7.10
2023-03-25T23:17:10.419Z,8.00
2023-03-25T23:19:38.024Z,8.40
2023-03-25T23:22:06.004Z,8.30
2023-03-25T23:24:37.893Z,6.90
2023-03-25T23:27:07.916Z,7.90
2023-03-25T23:29:37.242Z,7.50
2023-03-25T23:32:06.836Z,6.20
2023-03-25T23:34:35.537Z,7.40
2023-03-25T23:37:04.105Z,6.40
2023-03-25T23:39:31.823Z,6.30
2023-03-25T23:41:59.454Z,5.70
2023-03-25T23:44:27.484Z,5.80
2023-03-25T23:46:55.830Z,5.40
2023-03-25T23:49:23.538Z,4.70
2023-03-25T23:51:51.292Z,5.80
2023-03-25T23:54:18.983Z,5.30
2023-03-25T23:56:46.673Z,5.30
2023-03-25T23:59:14.319Z,5.40
